createdAt,value
2023-02-14T00:00:45.180Z,13.20
2023-02-14T00:03:13.686Z,13.23
2023-02-14T00:05:40.334Z,13.40
2023-02-14T00:08:06.921Z,16.83
2023-02-14T00:10:33.445Z,15.63
2023-02-14T00:12:59.970Z,15.13
2023-02-14T00:15:26.579Z,11.93
2023-02-14T00:17:55.949Z,13.35
2023-02-14T00:20:23.645Z,13.05
2023-02-14T00:22:50.586Z,12.90
2023-02-14T00:25:17.290Z,14.13
2023-02-14T00:27:44.309Z,15.20
2023-02-14T00:30:12.888Z,15.60
2023-02-14T00:32:40.738Z,13.73
2023-02-14T00:35:09.116Z,14.60
2023-02-14T00:37:35.786Z,15.20
2023-02-14T00:40:02.582Z,14.52
2023-02-14T00:42:29.251Z,13.40
2023-02-14T00:44:55.844Z,16.90
2023-02-14T00:47:22.498Z,14.25
2023-02-14T00:49:49.133Z,13.73
2023-02-14T00:52:15.899Z,14.13
2023-02-14T00:54:42.493Z,12.40
2023-02-14T00:57:09.098Z,13.05
2023-02-14T00:59:35.669Z,14.80
2023-02-14T01:02:02.260Z,12.75
2023-02-14T01:04:28.848Z,12.57
2023-02-14T01:06:55.468Z,11.30
2023-02-14T01:09:22.031Z,13.70
2023-02-14T01:11:49.010Z,14.32
2023-02-14T01:14:15.623Z,12.52
2023-02-14T01:16:42.282Z,14.20
2023-02-14T01:19:09.375Z,13.40
2023-02-14T01:21:36.116Z,13.10
2023-02-14T01:24:06.362Z,13.07
2023-02-14T01:26:34.119Z,14.50
2023-02-14T01:29:00.713Z,15.32
2023-02-14T01:31:29.837Z,12.82
2023-02-14T01:36:38.260Z,13.15
2023-02-14T01:39:08.942Z,10.63
2023-02-14T01:41:37.697Z,14.20
2023-02-14T01:44:28.677Z,13.02
2023-02-14T01:46:56.404Z,12.40
2023-02-14T01:49:35.123Z,12.90
2023-02-14T01:52:08.410Z,14.23
2023-02-14T01:54:41.636Z,13.98
2023-02-14T01:57:12.520Z,13.63
2023-02-14T01:59:43.605Z,13.70
2023-02-14T02:02:10.815Z,11.25
2023-02-14T02:04:44.483Z,14.73
2023-02-14T02:07:17.706Z,11.57
2023-02-14T02:09:49.564Z,12.52
2023-02-14T02:12:16.123Z,13.75
2023-02-14T02:14:43.836Z,11.68
2023-02-14T02:17:40.044Z,13.18
2023-02-14T02:20:40.786Z,12.20
2023-02-14T02:23:16.596Z,12.73
2023-02-14T02:26:17.063Z,14.63
2023-02-14T02:29:08.079Z,13.05
2023-02-14T02:31:43.748Z,11.02
2023-02-14T02:34:22.394Z,12.43
2023-02-14T02:37:03.846Z,11.77
2023-02-14T02:39:45.424Z,11.23
2023-02-14T02:42:27.238Z,10.48
2023-02-14T02:45:17.911Z,13.27
2023-02-14T02:48:15.340Z,13.40
2023-02-14T02:51:04.528Z,9.60
2023-02-14T02:53:44.819Z,9.70
2023-02-14T02:56:46.705Z,9.68
2023-02-14T02:59:22.272Z,10.38
2023-02-14T03:02:00.655Z,11.68
2023-02-14T03:04:46.626Z,9.65
2023-02-14T03:07:31.925Z,9.10
2023-02-14T03:09:59.961Z,9.77
2023-02-14T03:12:37.402Z,10.88
2023-02-14T03:15:32.516Z,9.23
2023-02-14T03:18:26.728Z,9.50
2023-02-14T03:21:23.071Z,9.43
2023-02-14T03:24:14.587Z,12.25
2023-02-14T03:26:53.456Z,11.25
2023-02-14T03:29:37.178Z,11.10
2023-02-14T03:32:21.985Z,9.07
2023-02-14T03:34:56.044Z,10.95
2023-02-14T03:37:32.192Z,10.70
2023-02-14T03:40:26.840Z,10.88
2023-02-14T03:42:57.207Z,11.18
2023-02-14T03:45:32.567Z,10.90
2023-02-14T03:48:04.137Z,11.15
2023-02-14T03:50:32.672Z,12.48
2023-02-14T03:53:01.258Z,10.27
2023-02-14T03:55:34.661Z,8.63
2023-02-14T03:58:16.903Z,9.27
2023-02-14T04:00:45.461Z,10.20
2023-02-14T04:03:15.235Z,9.88
2023-02-14T04:05:46.837Z,9.30
2023-02-14T04:08:21.622Z,8.65
2023-02-14T04:10:48.775Z,9.52
2023-02-14T04:13:15.334Z,10.20
2023-02-14T04:15:41.925Z,9.40
2023-02-14T04:18:27.772Z,9.30
2023-02-14T04:20:54.271Z,8.48
2023-02-14T04:23:20.856Z,10.88
2023-02-14T04:25:47.457Z,9.32
2023-02-14T04:28:14.238Z,9.10
2023-02-14T04:30:40.883Z,8.48
2023-02-14T04:33:08.292Z,7.45
2023-02-14T04:35:35.530Z,8.23
2023-02-14T04:38:02.769Z,8.38
2023-02-14T04:40:29.598Z,9.30
2023-02-14T04:42:56.367Z,9.85
2023-02-14T04:45:23.452Z,10.05
2023-02-14T04:47:50.098Z,8.82
2023-02-14T04:50:16.676Z,7.80
2023-02-14T04:52:43.321Z,9.95
2023-02-14T04:55:10.583Z,9.95
2023-02-14T04:57:37.165Z,9.80
2023-02-14T05:00:05.100Z,8.63
2023-02-14T05:02:31.714Z,9.10
2023-02-14T05:04:58.303Z,10.23
2023-02-14T05:07:24.888Z,10.70
2023-02-14T05:09:51.479Z,9.82
2023-02-14T05:12:18.097Z,9.02
2023-02-14T05:14:44.778Z,10.02
2023-02-14T05:17:11.516Z,8.60
2023-02-14T05:19:38.057Z,10.57
2023-02-14T05:22:04.604Z,10.13
2023-02-14T05:24:31.217Z,9.23
2023-02-14T05:26:57.785Z,9.32
2023-02-14T05:29:24.354Z,9.45
2023-02-14T05:31:51.078Z,9.25
2023-02-14T05:34:18.579Z,8.65
2023-02-14T05:36:45.121Z,8.52
2023-02-14T05:39:14.550Z,9.30
2023-02-14T05:41:41.572Z,9.82
2023-02-14T05:44:08.097Z,7.50
2023-02-14T05:46:34.609Z,10.02
2023-02-14T05:49:01.169Z,9.10
2023-02-14T05:51:27.748Z,10.55
2023-02-14T05:53:54.302Z,10.13
2023-02-14T05:56:20.943Z,8.57
2023-02-14T05:58:47.513Z,11.30
2023-02-14T06:01:14.367Z,9.55
2023-02-14T06:03:40.974Z,8.90
2023-02-14T06:06:07.692Z,8.70
2023-02-14T06:08:34.220Z,8.25
2023-02-14T06:11:01.119Z,9.85
2023-02-14T06:13:27.958Z,8.10
2023-02-14T06:15:54.493Z,8.68
2023-02-14T06:18:21.064Z,9.60
2023-02-14T06:20:48.556Z,10.90
2023-02-14T06:23:15.159Z,10.27
2023-02-14T06:25:41.819Z,12.65
2023-02-14T06:28:08.476Z,15.95
2023-02-14T06:30:35.202Z,12.15
2023-02-14T06:33:01.919Z,14.80
2023-02-14T06:35:28.610Z,14.40
2023-02-14T06:37:56.385Z,14.88
2023-02-14T06:40:24.029Z,14.25
2023-02-14T06:42:50.616Z,12.80
2023-02-14T06:45:17.313Z,14.45
2023-02-14T06:47:45.235Z,15.93
2023-02-14T06:50:12.250Z,13.30
2023-02-14T06:52:39.213Z,14.18
2023-02-14T06:55:06.162Z,15.43
2023-02-14T06:57:32.733Z,17.08
2023-02-14T06:59:59.333Z,15.15
2023-02-14T07:02:25.945Z,15.32
2023-02-14T07:04:52.515Z,13.68
2023-02-14T07:07:19.125Z,16.23
2023-02-14T07:09:45.778Z,14.85
2023-02-14T07:12:12.330Z,13.68
2023-02-14T07:14:38.958Z,15.75
2023-02-14T07:17:05.593Z,14.88
2023-02-14T07:19:32.196Z,16.60
2023-02-14T07:21:58.809Z,16.45
2023-02-14T07:24:25.465Z,17.23
2023-02-14T07:26:52.112Z,19.27
2023-02-14T07:29:18.687Z,15.82
2023-02-14T07:31:45.450Z,16.80
2023-02-14T07:34:12.197Z,16.85
2023-02-14T07:36:39.302Z,17.05
2023-02-14T07:39:06.301Z,17.25
2023-02-14T07:41:33.048Z,15.65
2023-02-14T07:43:59.657Z,18.02
2023-02-14T07:46:26.370Z,19.33
2023-02-14T07:48:52.993Z,18.17
2023-02-14T07:51:19.866Z,19.27
2023-02-14T07:53:46.478Z,16.02
2023-02-14T07:56:13.094Z,16.75
2023-02-14T07:58:39.709Z,18.90
2023-02-14T08:01:06.432Z,17.30
2023-02-14T08:03:33.052Z,16.15
2023-02-14T08:05:59.649Z,16.23
2023-02-14T08:08:28.695Z,15.30
2023-02-14T08:10:55.656Z,17.05
2023-02-14T08:13:22.511Z,17.45
2023-02-14T08:16:04.527Z,15.90
2023-02-14T08:18:36.657Z,16.52
2023-02-14T08:21:04.565Z,14.90
2023-02-14T08:23:33.008Z,15.03
2023-02-14T08:25:59.606Z,17.17
2023-02-14T08:28:27.613Z,14.70
2023-02-14T08:30:55.016Z,15.10
2023-02-14T08:33:21.870Z,15.88
2023-02-14T08:35:48.989Z,15.77
2023-02-14T08:38:15.604Z,16.27
2023-02-14T08:40:42.896Z,16.40
2023-02-14T08:43:09.927Z,17.52
2023-02-14T08:45:37.461Z,16.15
2023-02-14T08:48:06.386Z,32.08
2023-02-14T08:50:33.692Z,25.80
2023-02-14T08:53:00.425Z,21.20
2023-02-14T08:55:27.965Z,20.95
2023-02-14T08:57:58.099Z,17.35
2023-02-14T09:00:24.828Z,17.88
2023-02-14T09:02:52.727Z,17.52
2023-02-14T09:05:23.332Z,17.07
2023-02-14T09:07:50.252Z,18.10
2023-02-14T09:10:18.668Z,17.13
2023-02-14T09:12:45.746Z,17.35
2023-02-14T09:15:12.483Z,18.02
2023-02-14T09:17:39.470Z,17.23
2023-02-14T09:20:08.423Z,18.42
2023-02-14T09:22:35.079Z,18.42
2023-02-14T09:25:01.749Z,20.20
2023-02-14T09:27:28.687Z,19.23
2023-02-14T09:29:55.329Z,18.48
2023-02-14T09:32:21.970Z,20.27
2023-02-14T09:34:48.509Z,20.67
2023-02-14T09:37:33.814Z,20.50
2023-02-14T09:40:00.420Z,22.48
2023-02-14T09:42:48.565Z,21.60
2023-02-14T09:45:19.482Z,21.77
2023-02-14T09:47:48.732Z,21.45
2023-02-14T09:50:34.428Z,21.15
2023-02-14T09:53:16.494Z,21.60
2023-02-14T09:56:05.858Z,22.67
2023-02-14T09:58:41.280Z,21.50
2023-02-14T10:01:28.158Z,25.77
2023-02-14T10:04:16.458Z,22.27
2023-02-14T10:09:26.784Z,23.90
2023-02-14T10:14:28.001Z,21.17
2023-02-14T10:17:07.836Z,22.73
2023-02-14T10:19:46.525Z,21.50
2023-02-14T10:22:19.608Z,21.70
2023-02-14T10:24:51.693Z,19.67
2023-02-14T10:27:44.863Z,22.30
2023-02-14T10:30:21.432Z,24.38
2023-02-14T10:32:49.445Z,22.45
2023-02-14T10:35:27.766Z,21.17
2023-02-14T10:38:20.461Z,20.10
2023-02-14T10:41:19.041Z,20.92
2023-02-14T10:43:54.564Z,18.48
2023-02-14T10:46:34.838Z,20.15
2023-02-14T10:49:24.205Z,20.17
2023-02-14T10:52:12.735Z,20.83
2023-02-14T10:54:42.717Z,19.92
2023-02-14T10:57:17.664Z,20.42
2023-02-14T10:59:59.240Z,20.77
2023-02-14T11:02:40.200Z,20.77
2023-02-14T11:05:08.255Z,19.02
2023-02-14T11:07:34.777Z,16.95
2023-02-14T11:10:01.778Z,20.35
2023-02-14T11:12:35.054Z,18.20
2023-02-14T11:15:16.706Z,17.38
2023-02-14T11:17:43.436Z,14.52
2023-02-14T11:20:30.555Z,16.60
2023-02-14T11:22:57.603Z,16.00
2023-02-14T11:25:30.438Z,15.57
2023-02-14T11:27:59.789Z,14.63
2023-02-14T11:30:31.576Z,16.10
2023-02-14T11:32:58.277Z,15.35
2023-02-14T11:35:33.700Z,16.73
2023-02-14T11:38:06.276Z,16.30
2023-02-14T11:40:37.796Z,15.48
2023-02-14T11:43:14.273Z,14.95
2023-02-14T11:45:46.721Z,14.68
2023-02-14T11:48:39.559Z,15.57
2023-02-14T11:51:11.212Z,13.73
2023-02-14T11:53:43.485Z,15.65
2023-02-14T11:56:10.922Z,14.65
2023-02-14T11:58:41.264Z,14.32
2023-02-14T12:01:13.273Z,13.63
2023-02-14T12:03:48.968Z,14.65
2023-02-14T12:06:26.897Z,14.82
2023-02-14T12:09:27.049Z,14.02
2023-02-14T12:12:13.933Z,13.70
2023-02-14T12:14:40.528Z,14.35
2023-02-14T12:17:35.719Z,14.57
2023-02-14T12:20:16.111Z,12.30
2023-02-14T12:22:48.849Z,11.90
2023-02-14T12:25:25.638Z,10.98
2023-02-14T12:28:05.399Z,12.55
2023-02-14T12:30:35.106Z,10.13
2023-02-14T12:33:01.820Z,8.95
2023-02-14T12:35:49.677Z,8.88
2023-02-14T12:38:34.648Z,8.60
2023-02-14T12:41:09.085Z,9.55
2023-02-14T12:43:56.440Z,9.70
2023-02-14T12:46:53.696Z,8.48
2023-02-14T12:49:42.743Z,8.63
2023-02-14T12:52:55.449Z,7.80
2023-02-14T12:55:46.207Z,7.68
2023-02-14T12:58:45.132Z,7.18
2023-02-14T13:01:13.204Z,7.40
2023-02-14T13:03:53.088Z,7.68
2023-02-14T13:09:23.134Z,7.80
2023-02-14T13:12:15.763Z,7.32
2023-02-14T13:15:19.142Z,8.10
2023-02-14T13:18:07.855Z,7.80
2023-02-14T13:20:55.710Z,8.35
2023-02-14T13:23:38.560Z,7.88
2023-02-14T13:26:27.289Z,7.82
2023-02-14T13:29:09.894Z,8.70
2023-02-14T13:31:38.509Z,7.78
2023-02-14T13:34:31.767Z,8.52
2023-02-14T13:37:02.632Z,8.23
2023-02-14T13:39:41.941Z,6.95
2023-02-14T13:42:10.526Z,8.25
2023-02-14T13:44:48.999Z,8.25
2023-02-14T13:47:21.518Z,8.77
2023-02-14T13:50:10.420Z,9.60
2023-02-14T13:52:45.554Z,10.32
2023-02-14T13:55:20.327Z,9.57
2023-02-14T13:57:48.213Z,10.18
2023-02-14T14:00:26.816Z,10.27
2023-02-14T14:05:31.134Z,9.63
2023-02-14T14:08:22.521Z,10.85
2023-02-14T14:10:53.303Z,10.75
2023-02-14T14:13:41.318Z,11.68
2023-02-14T14:16:28.872Z,13.65
2023-02-14T14:19:17.113Z,12.80
2023-02-14T14:21:59.011Z,13.95
2023-02-14T14:24:37.350Z,13.18
2023-02-14T14:27:06.711Z,13.48
2023-02-14T14:29:40.264Z,13.70
2023-02-14T14:32:12.403Z,15.13
2023-02-14T14:34:49.307Z,17.05
2023-02-14T14:37:19.360Z,15.90
2023-02-14T14:39:51.860Z,16.75
2023-02-14T14:42:20.824Z,19.10
2023-02-14T14:44:52.705Z,19.70
2023-02-14T14:47:25.527Z,20.02
2023-02-14T14:49:54.555Z,18.17
2023-02-14T14:52:34.934Z,19.45
2023-02-14T14:55:04.385Z,18.48
2023-02-14T14:57:31.105Z,19.17
2023-02-14T15:00:22.928Z,19.35
2023-02-14T15:03:13.263Z,18.65
2023-02-14T15:05:42.933Z,20.70
2023-02-14T15:08:33.989Z,20.23
2023-02-14T15:11:34.521Z,19.40
2023-02-14T15:14:03.080Z,18.38
2023-02-14T15:16:48.609Z,20.20
2023-02-14T15:19:37.243Z,19.63
2023-02-14T15:22:07.569Z,18.05
2023-02-14T15:24:38.010Z,19.65
2023-02-14T15:27:05.170Z,19.00
2023-02-14T15:29:33.011Z,20.02
2023-02-14T15:32:03.161Z,19.55
2023-02-14T15:34:38.985Z,19.92
2023-02-14T15:37:07.062Z,21.23
2023-02-14T15:39:41.740Z,21.50
2023-02-14T15:42:29.451Z,20.95
2023-02-14T15:45:27.722Z,19.67
2023-02-14T15:48:06.133Z,21.85
2023-02-14T15:50:35.610Z,19.58
2023-02-14T15:53:24.165Z,20.23
2023-02-14T15:58:21.950Z,19.40
2023-02-14T16:00:50.154Z,19.77
2023-02-14T16:03:22.731Z,18.00
2023-02-14T16:05:50.438Z,21.13
2023-02-14T16:08:36.479Z,21.13
2023-02-14T16:11:13.648Z,20.20
2023-02-14T16:13:45.998Z,19.15
2023-02-14T16:16:15.376Z,21.52
2023-02-14T16:18:44.283Z,19.70
2023-02-14T16:23:37.561Z,20.00
2023-02-14T16:26:06.772Z,20.02
2023-02-14T16:28:34.712Z,20.48
2023-02-14T16:31:06.126Z,20.83
2023-02-14T16:33:38.458Z,20.30
2023-02-14T16:36:16.948Z,20.63
2023-02-14T16:38:45.257Z,24.42
2023-02-14T16:41:21.211Z,20.20
2023-02-14T16:43:48.961Z,22.13
2023-02-14T16:46:24.850Z,21.40
2023-02-14T16:48:53.040Z,22.08
2023-02-14T16:51:22.678Z,20.48
2023-02-14T16:53:50.461Z,20.13
2023-02-14T16:56:23.058Z,22.20
2023-02-14T16:58:49.875Z,22.95
2023-02-14T17:01:16.465Z,25.55
2023-02-14T17:03:43.553Z,24.75
2023-02-14T17:06:15.753Z,22.33
2023-02-14T17:08:43.149Z,26.98
2023-02-14T17:11:10.590Z,25.63
2023-02-14T17:13:44.389Z,26.13
2023-02-14T17:16:15.579Z,27.60
2023-02-14T17:18:47.527Z,23.35
2023-02-14T17:21:15.880Z,26.85
2023-02-14T17:23:42.600Z,23.65
2023-02-14T17:26:11.219Z,23.80
2023-02-14T17:28:37.957Z,30.73
2023-02-14T17:31:04.963Z,25.20
2023-02-14T17:33:33.061Z,29.90
2023-02-14T17:36:08.385Z,23.58
2023-02-14T17:38:36.456Z,32.35
2023-02-14T17:41:24.970Z,31.45
2023-02-14T17:43:54.739Z,28.52
2023-02-14T17:46:22.538Z,25.23
2023-02-14T17:48:49.448Z,25.17
2023-02-14T17:51:20.282Z,24.25
2023-02-14T17:53:47.862Z,23.80
2023-02-14T17:56:17.987Z,22.95
2023-02-14T17:58:47.636Z,19.05
2023-02-14T18:01:16.213Z,19.23
2023-02-14T18:03:42.727Z,19.00
2023-02-14T18:06:11.297Z,18.10
2023-02-14T18:08:46.199Z,19.17
2023-02-14T18:11:13.007Z,19.27
2023-02-14T18:13:41.488Z,21.35
2023-02-14T18:16:11.071Z,18.10
2023-02-14T18:18:38.208Z,17.63
2023-02-14T18:21:06.318Z,21.63
2023-02-14T18:23:33.486Z,20.97
2023-02-14T18:26:04.549Z,21.58
2023-02-14T18:28:32.166Z,20.70
2023-02-14T18:31:16.018Z,20.70
2023-02-14T18:33:45.269Z,23.77
2023-02-14T18:36:13.787Z,22.92
2023-02-14T18:38:41.920Z,22.90
2023-02-14T18:41:11.563Z,25.00
2023-02-14T18:43:38.825Z,24.20
2023-02-14T18:46:08.145Z,22.63
2023-02-14T18:48:35.787Z,17.00
2023-02-14T18:51:14.054Z,18.42
2023-02-14T18:53:42.071Z,18.35
2023-02-14T18:56:12.152Z,18.20
2023-02-14T18:58:40.405Z,19.73
2023-02-14T19:01:11.655Z,20.25
2023-02-14T19:03:39.611Z,21.40
2023-02-14T19:06:10.284Z,20.88
2023-02-14T19:08:39.429Z,20.08
2023-02-14T19:13:45.851Z,18.35
2023-02-14T19:16:18.287Z,18.48
2023-02-14T19:18:45.342Z,20.88
2023-02-14T19:21:17.288Z,20.23
2023-02-14T19:23:44.459Z,18.88
2023-02-14T19:26:16.407Z,19.60
2023-02-14T19:28:44.015Z,21.08
2023-02-14T19:31:10.894Z,21.20
2023-02-14T19:33:42.952Z,23.27
2023-02-14T19:36:12.883Z,21.23
2023-02-14T19:38:43.829Z,21.63
2023-02-14T19:41:18.750Z,24.05
2023-02-14T19:43:46.269Z,21.05
2023-02-14T19:46:17.750Z,21.65
2023-02-14T19:48:45.469Z,23.02
2023-02-14T19:51:17.571Z,25.52
2023-02-14T19:53:44.601Z,24.92
2023-02-14T19:56:11.377Z,23.65
2023-02-14T19:58:37.934Z,25.65
2023-02-14T20:01:06.295Z,26.27
2023-02-14T20:03:33.021Z,27.27
2023-02-14T20:05:59.528Z,26.50
2023-02-14T20:08:26.063Z,23.23
2023-02-14T20:10:52.608Z,23.30
2023-02-14T20:13:19.239Z,22.60
2023-02-14T20:15:45.938Z,20.55
2023-02-14T20:18:12.540Z,21.05
2023-02-14T20:21:03.590Z,20.80
2023-02-14T20:23:32.215Z,19.35
2023-02-14T20:25:58.776Z,20.25
2023-02-14T20:28:25.313Z,23.02
2023-02-14T20:30:52.056Z,21.38
2023-02-14T20:33:18.616Z,18.95
2023-02-14T20:35:45.443Z,21.17
2023-02-14T20:38:12.294Z,21.13
2023-02-14T20:40:39.705Z,22.73
2023-02-14T20:43:06.592Z,23.77
2023-02-14T20:45:33.168Z,23.23
2023-02-14T20:48:04.053Z,23.08
2023-02-14T20:50:31.309Z,21.10
2023-02-14T20:52:58.558Z,19.98
2023-02-14T20:55:27.072Z,21.55
2023-02-14T20:57:53.966Z,23.02
2023-02-14T21:00:20.599Z,19.23
2023-02-14T21:02:47.130Z,19.92
2023-02-14T21:05:18.485Z,22.45
2023-02-14T21:07:45.113Z,25.15
2023-02-14T21:10:12.095Z,24.40
2023-02-14T21:12:38.742Z,20.08
2023-02-14T21:15:07.109Z,20.65
2023-02-14T21:17:34.140Z,21.08
2023-02-14T22:16:17.910Z,18.92
2023-02-14T22:18:47.597Z,20.88
2023-02-14T22:21:17.914Z,17.13
2023-02-14T22:23:45.134Z,17.80
2023-02-14T22:26:17.527Z,16.92
2023-02-14T22:28:46.225Z,18.35
2023-02-14T22:31:14.088Z,20.35
2023-02-14T22:33:41.069Z,19.45
2023-02-14T22:36:08.623Z,19.88
2023-02-14T22:38:36.263Z,19.90
2023-02-14T22:41:13.990Z,20.75
2023-02-14T22:43:41.695Z,21.10
2023-02-14T22:46:09.650Z,18.85
2023-02-14T22:48:37.235Z,22.38
2023-02-14T22:51:10.633Z,20.33
2023-02-14T22:53:38.148Z,22.40
2023-02-14T22:56:15.937Z,19.17
2023-02-14T22:58:43.166Z,21.50
2023-02-14T23:01:17.851Z,16.58
2023-02-14T23:03:45.565Z,22.38
2023-02-14T23:06:13.448Z,23.67
2023-02-14T23:08:44.906Z,25.83
2023-02-14T23:11:14.322Z,24.90
2023-02-14T23:13:59.900Z,22.25
2023-02-14T23:16:45.204Z,21.75
2023-02-14T23:19:35.486Z,22.30
2023-02-14T23:22:15.130Z,23.80
2023-02-14T23:24:42.187Z,23.50
2023-02-14T23:27:09.890Z,22.83
2023-02-14T23:29:37.040Z,21.27
2023-02-14T23:32:05.479Z,25.60
2023-02-14T23:34:34.084Z,24.33
2023-02-14T23:37:01.033Z,25.92
2023-02-14T23:39:27.687Z,24.70
2023-02-14T23:41:55.205Z,21.70
2023-02-14T23:44:24.136Z,19.92
2023-02-14T23:46:53.756Z,26.63
2023-02-14T23:49:20.764Z,23.83
2023-02-14T23:51:49.157Z,25.15
2023-02-14T23:54:16.148Z,27.42
2023-02-14T23:56:43.550Z,26.58
2023-02-14T23:59:10.219Z,24.38
